Time;durP1;ratioP1;P1;durP2;ratioP2;P2;SDS_P1;SDS_P2;PMS_P1;PMS_P2;Temp;Humidity;BMP_temperature;BMP_pressure;BME280_temperature;BME280_humidity;BME280_pressure;Samples;Min_cycle;Max_cycle;Signal;HPM_P1;HPM_P2
2023/08/21 00:01:03;;;;;;;10.50;2.13;;;;;;;20.12;100.00;101948.81;5073382;28;20184;-81
2023/08/21 00:03:29;;;;;;;9.95;1.88;;;;;;;20.02;100.00;101930.31;5072711;28;20067;-82
2023/08/21 00:05:55;;;;;;;13.57;2.05;;;;;;;19.95;100.00;101931.09;5079781;28;20020;-82
2023/08/21 00:08:20;;;;;;;11.35;1.77;;;;;;;19.90;100.00;101939.03;5076558;28;20482;-82
2023/08/21 00:10:46;;;;;;;16.85;2.63;;;;;;;19.91;100.00;101941.66;5085909;28;20394;-81
2023/08/21 00:13:11;;;;;;;19.55;2.63;;;;;;;19.93;100.00;101936.78;5072755;28;20483;-82
2023/08/21 00:15:38;;;;;;;14.60;2.88;;;;;;;19.78;100.00;101941.16;5066630;28;20382;-82
2023/08/21 00:18:04;;;;;;;14.10;2.55;;;;;;;19.74;100.00;101939.66;5088045;28;20123;-82
2023/08/21 00:20:31;;;;;;;19.10;2.58;;;;;;;19.60;100.00;101941.94;5086768;28;20028;-82
2023/08/21 00:22:57;;;;;;;10.57;2.58;;;;;;;19.64;100.00;101939.72;5065245;28;20027;-82
2023/08/21 00:25:22;;;;;;;13.60;2.42;;;;;;;19.61;100.00;101932.56;5086801;28;20028;-82
2023/08/21 00:27:49;;;;;;;19.67;2.83;;;;;;;19.67;100.00;101944.09;5082304;28;20107;-82
2023/08/21 00:30:17;;;;;;;11.63;2.72;;;;;;;19.51;100.00;101940.06;5064162;28;20119;-81
2023/08/21 00:32:43;;;;;;;10.93;2.72;;;;;;;19.50;100.00;101935.56;5067896;28;20066;-81
2023/08/21 00:35:09;;;;;;;13.93;3.20;;;;;;;19.52;100.00;101940.97;5086045;28;20081;-82
2023/08/21 00:37:34;;;;;;;9.55;2.83;;;;;;;19.49;100.00;101941.25;5082712;28;20131;-82
2023/08/21 00:40:00;;;;;;;17.30;3.33;;;;;;;19.39;100.00;101935.75;5087191;28;20089;-82
2023/08/21 00:42:26;;;;;;;12.02;2.80;;;;;;;19.39;100.00;101949.63;5083330;28;20628;-82
2023/08/21 00:44:52;;;;;;;14.65;3.13;;;;;;;19.19;100.00;101941.38;5079172;28;20049;-82
2023/08/21 00:47:19;;;;;;;15.02;3.05;;;;;;;19.27;100.00;101947.06;5072234;28;20038;-82
2023/08/21 00:49:46;;;;;;;15.18;3.10;;;;;;;19.19;100.00;101937.75;5087405;28;20028;-83
2023/08/21 00:52:14;;;;;;;15.63;3.20;;;;;;;19.19;100.00;101938.59;5070866;28;20052;-82
2023/08/21 00:54:40;;;;;;;15.50;3.20;;;;;;;19.09;100.00;101941.41;5090923;28;20059;-82
2023/08/21 00:57:05;;;;;;;15.90;3.50;;;;;;;19.01;100.00;101944.06;5092688;28;20123;-82
2023/08/21 00:59:31;;;;;;;24.65;3.70;;;;;;;18.96;100.00;101934.44;5051794;28;20126;-83
2023/08/21 01:01:57;;;;;;;13.07;4.05;;;;;;;18.97;100.00;101936.19;5082627;28;20440;-82
2023/08/21 01:04:22;;;;;;;11.88;3.60;;;;;;;18.98;100.00;101926.84;5084124;28;20106;-82
2023/08/21 01:06:49;;;;;;;13.70;3.45;;;;;;;19.03;100.00;101939.22;5086390;28;20145;-82
2023/08/21 01:09:33;;;;;;;15.85;3.17;;;;;;;19.03;100.00;101946.69;5069024;28;20051;-83
2023/08/21 01:12:25;;;;;;;18.83;4.00;;;;;;;18.97;100.00;101939.84;5086193;28;20432;-82
2023/08/21 01:15:06;;;;;;;11.05;3.15;;;;;;;18.98;100.00;101933.25;5064755;28;20040;-83
2023/08/21 01:17:35;;;;;;;15.88;4.00;;;;;;;18.95;100.00;101930.78;5088711;28;20035;-82
2023/08/21 01:20:01;;;;;;;12.63;3.78;;;;;;;18.91;100.00;101932.97;5081951;28;20039;-82
2023/08/21 01:22:27;;;;;;;15.18;3.85;;;;;;;18.92;100.00;101933.84;5085370;28;20036;-83
2023/08/21 01:24:54;;;;;;;11.23;3.90;;;;;;;18.99;100.00;101932.25;5082894;28;20063;-82
2023/08/21 01:27:21;;;;;;;15.18;4.32;;;;;;;18.92;100.00;101931.06;5069230;28;20028;-82
2023/08/21 01:29:47;;;;;;;14.52;3.35;;;;;;;18.96;100.00;101931.69;5088682;28;20058;-82
2023/08/21 01:32:33;;;;;;;13.70;3.72;;;;;;;18.78;100.00;101928.75;5083963;28;20068;-83
2023/08/21 01:34:59;;;;;;;11.98;3.90;;;;;;;18.76;100.00;101928.00;5082540;28;20059;-82
2023/08/21 01:37:27;;;;;;;12.32;3.45;;;;;;;18.73;100.00;101929.19;5070166;28;20040;-83
2023/08/21 01:39:53;;;;;;;20.33;3.58;;;;;;;18.72;100.00;101921.88;5068813;28;20035;-87
2023/08/21 01:42:19;;;;;;;18.20;3.90;;;;;;;18.65;100.00;101931.84;5073215;28;20458;-87
2023/08/21 01:44:45;;;;;;;16.77;3.90;;;;;;;18.60;100.00;101926.72;5072862;28;20128;-87
2023/08/21 01:47:11;;;;;;;11.13;3.25;;;;;;;18.48;100.00;101931.56;5089362;28;20043;-86
2023/08/21 01:49:37;;;;;;;17.85;3.72;;;;;;;18.42;100.00;101936.84;5046916;28;20036;-86
2023/08/21 01:52:02;;;;;;;17.95;4.13;;;;;;;18.34;100.00;101938.41;5049154;28;20028;-86
2023/08/21 01:54:28;;;;;;;15.10;4.03;;;;;;;18.39;100.00;101937.97;5053356;28;20026;-86
2023/08/21 01:56:53;;;;;;;13.95;4.13;;;;;;;18.44;100.00;101949.50;5071057;28;20061;-87
2023/08/21 01:59:19;;;;;;;13.35;3.58;;;;;;;18.43;100.00;101952.44;5069889;28;20036;-87
2023/08/21 02:01:45;;;;;;;15.32;4.10;;;;;;;18.47;100.00;101940.91;5066139;28;20048;-87
2023/08/21 02:04:10;;;;;;;14.18;4.53;;;;;;;18.48;100.00;101931.56;5081173;28;20402;-87
2023/08/21 02:06:35;;;;;;;17.15;4.63;;;;;;;18.46;100.00;101930.84;5083699;28;20039;-87
2023/08/21 02:09:01;;;;;;;16.05;4.07;;;;;;;18.44;100.00;101930.09;5089334;28;20043;-87
2023/08/21 02:11:27;;;;;;;15.68;4.10;;;;;;;18.51;100.00;101920.19;5055635;28;20128;-86
2023/08/21 02:13:52;;;;;;;9.70;4.15;;;;;;;18.45;100.00;101914.34;5087290;28;20032;-86
2023/08/21 02:16:18;;;;;;;14.25;4.13;;;;;;;18.22;100.00;101922.06;5088130;28;20101;-86
2023/08/21 02:18:43;;;;;;;17.15;4.63;;;;;;;18.07;100.00;101922.53;5081458;28;20495;-87
2023/08/21 02:21:08;;;;;;;11.15;4.45;;;;;;;18.06;100.00;101923.53;5101187;28;20036;-86
2023/08/21 02:23:34;;;;;;;18.20;4.65;;;;;;;17.98;100.00;101918.69;5050880;28;20050;-87
2023/08/21 02:25:59;;;;;;;14.13;4.20;;;;;;;18.08;100.00;101921.47;5056948;28;20573;-86
2023/08/21 02:28:24;;;;;;;16.10;4.43;;;;;;;18.08;100.00;101923.38;5053062;28;20032;-86
2023/08/21 02:30:50;;;;;;;17.00;4.50;;;;;;;18.14;100.00;101920.91;5081262;28;20128;-87
2023/08/21 02:33:15;;;;;;;16.10;5.18;;;;;;;18.13;100.00;101923.81;5068171;28;20040;-86
2023/08/21 02:35:41;;;;;;;17.50;4.85;;;;;;;18.11;100.00;101931.41;5081495;28;20050;-86
2023/08/21 02:38:06;;;;;;;9.98;4.55;;;;;;;18.02;100.00;101924.84;5070889;28;20054;-86
2023/08/21 02:40:32;;;;;;;14.45;4.60;;;;;;;17.93;100.00;101920.16;5069837;28;20119;-87
2023/08/21 02:42:57;;;;;;;14.00;4.70;;;;;;;18.04;100.00;101925.56;5083026;28;20685;-86
2023/08/21 02:45:23;;;;;;;10.93;4.13;;;;;;;18.05;100.00;101935.63;5086908;28;20036;-86
2023/08/21 02:47:49;;;;;;;13.93;4.78;;;;;;;18.02;100.00;101927.63;5086726;28;20027;-86
2023/08/21 02:50:14;;;;;;;22.50;4.72;;;;;;;17.97;100.00;101922.50;5080749;28;20390;-82
2023/08/21 02:52:40;;;;;;;14.48;4.97;;;;;;;17.99;100.00;101920.47;5070018;28;20050;-82
2023/08/21 02:55:06;;;;;;;18.20;5.25;;;;;;;18.03;100.00;101928.50;5087344;28;20035;-82
2023/08/21 02:57:31;;;;;;;15.40;5.28;;;;;;;17.96;100.00;101933.72;5065975;28;20047;-82
2023/08/21 02:59:57;;;;;;;14.07;4.68;;;;;;;17.93;100.00;101920.16;5071001;28;20062;-82
2023/08/21 03:02:22;;;;;;;16.65;4.25;;;;;;;17.85;100.00;101920.84;5081544;28;20043;-81
2023/08/21 03:04:49;;;;;;;12.90;4.15;;;;;;;17.96;100.00;101919.88;5088350;28;20035;-82
2023/08/21 03:07:15;;;;;;;15.10;4.40;;;;;;;17.82;100.00;101927.56;5078491;28;20043;-82
2023/08/21 03:09:41;;;;;;;12.32;4.00;;;;;;;17.69;100.00;101924.16;5082829;28;20113;-82
2023/08/21 03:12:07;;;;;;;20.83;5.10;;;;;;;17.66;100.00;101916.16;5084017;28;20024;-82
2023/08/21 03:14:33;;;;;;;12.45;4.32;;;;;;;17.78;100.00;101919.66;5079599;28;20051;-82
2023/08/21 03:16:59;;;;;;;12.98;4.50;;;;;;;17.85;100.00;101926.38;5085270;28;20016;-83
2023/08/21 03:19:24;;;;;;;15.57;4.20;;;;;;;17.71;100.00;101926.78;5073184;28;20020;-82
2023/08/21 03:21:51;;;;;;;21.00;4.00;;;;;;;17.81;100.00;101925.78;5083396;28;20059;-83
2023/08/21 03:24:16;;;;;;;14.25;3.97;;;;;;;17.80;100.00;101929.56;5082343;28;20098;-82
2023/08/21 03:26:42;;;;;;;12.77;3.42;;;;;;;17.93;100.00;101917.38;5083421;28;20055;-82
2023/08/21 03:29:07;;;;;;;12.55;4.40;;;;;;;18.02;100.00;101922.09;5065388;28;20461;-82
2023/08/21 03:31:32;;;;;;;15.10;4.10;;;;;;;18.07;100.00;101921.63;5080732;28;20044;-82
2023/08/21 03:33:58;;;;;;;19.67;3.95;;;;;;;17.94;100.00;101922.78;5085332;28;20107;-82
2023/08/21 03:36:30;;;;;;;10.60;3.95;;;;;;;17.93;100.00;101926.56;5083776;28;20488;-82
2023/08/21 03:38:57;;;;;;;16.52;4.03;;;;;;;17.96;100.00;101928.19;5081904;28;20043;-82
2023/08/21 03:41:23;;;;;;;17.50;4.25;;;;;;;17.92;100.00;101924.84;5081018;28;20032;-82
2023/08/21 03:43:48;;;;;;;12.73;4.10;;;;;;;17.83;100.00;101918.22;5052265;28;20463;-82
2023/08/21 03:46:14;;;;;;;13.50;4.45;;;;;;;17.75;100.00;101926.34;5072245;28;20036;-82
2023/08/21 03:48:39;;;;;;;17.02;4.10;;;;;;;17.73;100.00;101920.09;5070759;28;20500;-82
2023/08/21 03:51:04;;;;;;;16.95;4.15;;;;;;;17.80;100.00;101932.34;5045513;28;20036;-82
2023/08/21 03:53:30;;;;;;;15.40;3.60;;;;;;;17.73;100.00;101925.63;5078756;28;20020;-82
2023/08/21 03:55:55;;;;;;;13.15;3.50;;;;;;;17.67;100.00;101917.88;5077188;28;20032;-83
2023/08/21 03:58:21;;;;;;;11.38;4.40;;;;;;;17.86;100.00;101930.91;5082004;28;20059;-83
2023/08/21 04:00:46;;;;;;;15.55;4.07;;;;;;;17.77;100.00;101927.13;5083944;28;20027;-83
2023/08/21 04:03:12;;;;;;;9.93;3.83;;;;;;;17.66;100.00;101918.03;5069524;28;20398;-83
2023/08/21 04:05:37;;;;;;;19.35;4.53;;;;;;;17.73;100.00;101920.09;5066955;28;20028;-82
2023/08/21 04:08:03;;;;;;;14.23;4.32;;;;;;;17.68;100.00;101916.00;5091257;28;20100;-84
2023/08/21 04:10:28;;;;;;;14.95;4.93;;;;;;;17.62;100.00;101907.22;5076312;28;20509;-83
2023/08/21 04:12:54;;;;;;;16.15;4.38;;;;;;;17.52;100.00;101911.00;5073961;28;20031;-83
2023/08/21 04:15:19;;;;;;;9.48;3.70;;;;;;;17.59;100.00;101912.16;5073286;28;20032;-83
2023/08/21 04:17:44;;;;;;;15.90;4.97;;;;;;;17.49;100.00;101914.03;5069026;28;20038;-83
2023/08/21 04:20:10;;;;;;;15.35;4.28;;;;;;;17.52;100.00;101914.63;5083475;28;20026;-80
2023/08/21 04:22:36;;;;;;;20.35;4.82;;;;;;;17.49;100.00;101917.69;5068176;28;20040;-81
2023/08/21 04:25:02;;;;;;;9.48;4.18;;;;;;;17.48;100.00;101926.13;5082954;28;20082;-82
2023/08/21 04:27:28;;;;;;;13.05;4.40;;;;;;;17.52;100.00;101922.06;5072980;28;20118;-80
2023/08/21 04:29:53;;;;;;;15.75;4.40;;;;;;;17.60;100.00;101920.34;5083434;28;20474;-80
2023/08/21 04:32:18;;;;;;;18.23;4.72;;;;;;;17.58;100.00;101921.53;5088625;28;20051;-80
2023/08/21 04:34:44;;;;;;;14.85;4.15;;;;;;;17.72;100.00;101917.47;5087553;28;20044;-81
2023/08/21 04:37:09;;;;;;;19.85;4.18;;;;;;;17.74;100.00;101932.94;5054548;28;20094;-81
2023/08/21 04:39:36;;;;;;;19.60;4.22;;;;;;;17.79;100.00;101930.59;5085439;28;20046;-82
2023/08/21 04:42:02;;;;;;;17.42;4.25;;;;;;;17.78;100.00;101919.66;5082820;28;20119;-82
2023/08/21 04:44:27;;;;;;;17.40;4.47;;;;;;;17.82;100.00;101926.66;5084966;28;20095;-81
2023/08/21 04:46:53;;;;;;;21.20;5.18;;;;;;;17.79;100.00;101925.06;5068566;28;20114;-82
2023/08/21 04:49:18;;;;;;;22.83;4.15;;;;;;;17.72;100.00;101917.47;5085839;28;20039;-81
2023/08/21 04:51:43;;;;;;;22.55;4.07;;;;;;;17.69;100.00;101938.00;5069288;28;20035;-82
2023/08/21 04:54:09;;;;;;;12.20;4.32;;;;;;;17.70;100.00;101947.19;5070510;28;20063;-83
2023/08/21 04:56:34;;;;;;;13.55;3.92;;;;;;;17.90;100.00;101954.56;5082227;28;20029;-84
2023/08/21 04:59:00;;;;;;;17.02;4.18;;;;;;;17.97;100.00;101957.63;5050516;28;20042;-84
2023/08/21 05:01:25;;;;;;;21.10;4.65;;;;;;;18.03;100.00;101951.53;5056305;28;20093;-83
2023/08/21 05:03:51;;;;;;;13.18;5.70;;;;;;;18.16;100.00;101952.13;5064068;28;20389;-84
2023/08/21 05:06:16;;;;;;;15.90;5.82;;;;;;;18.02;100.00;101940.59;5069654;28;20093;-83
2023/08/21 05:08:42;;;;;;;20.60;6.20;;;;;;;17.93;100.00;101956.19;5069530;28;20418;-85
2023/08/21 05:11:07;;;;;;;16.88;5.75;;;;;;;17.79;100.00;101950.00;5081044;28;20062;-84
2023/08/21 05:13:33;;;;;;;17.67;7.57;;;;;;;17.77;100.00;101962.22;5066319;28;20052;-85
2023/08/21 05:15:59;;;;;;;23.13;7.35;;;;;;;17.75;100.00;101964.28;5070820;28;20066;-85
2023/08/21 05:18:25;;;;;;;18.55;7.80;;;;;;;17.78;100.00;101967.63;5081807;28;20034;-85
2023/08/21 05:20:53;;;;;;;26.42;7.60;;;;;;;17.61;100.00;101968.28;5085012;28;20037;-84
2023/08/21 05:23:18;;;;;;;24.13;7.63;;;;;;;17.55;100.00;101972.50;5071836;28;20126;-84
2023/08/21 05:25:44;;;;;;;18.63;7.15;;;;;;;17.60;100.00;101969.31;5071596;28;20119;-85
2023/08/21 05:28:10;;;;;;;20.15;7.63;;;;;;;17.59;100.00;101982.31;5068473;28;20063;-85
2023/08/21 05:30:36;;;;;;;14.85;7.15;;;;;;;17.73;100.00;101983.81;5052894;28;20148;-84
2023/08/21 05:33:04;;;;;;;15.23;7.15;;;;;;;17.77;100.00;101978.84;5088950;28;20020;-85
2023/08/21 05:35:35;;;;;;;19.38;6.40;;;;;;;17.84;100.00;101980.06;5084660;28;20446;-85
2023/08/21 05:38:04;;;;;;;19.80;6.30;;;;;;;17.87;100.00;101987.19;5084854;28;20020;-85
2023/08/21 05:40:30;;;;;;;19.38;6.13;;;;;;;17.96;100.00;101978.94;5081176;28;20032;-85
2023/08/21 05:42:55;;;;;;;16.27;5.47;;;;;;;18.11;100.00;101984.09;5084351;28;20039;-84
2023/08/21 05:45:21;;;;;;;25.15;6.55;;;;;;;18.04;100.00;101989.31;5079445;28;20089;-84
2023/08/21 05:47:47;;;;;;;12.30;5.50;;;;;;;18.09;100.00;101981.44;5084894;28;20036;-84
2023/08/21 05:50:13;;;;;;;27.02;6.13;;;;;;;18.15;100.00;101994.75;5057623;28;20553;-84
2023/08/21 05:52:40;;;;;;;14.15;5.93;;;;;;;18.18;100.00;101993.56;5074586;28;20028;-84
2023/08/21 05:55:06;;;;;;;14.43;6.40;;;;;;;18.24;100.00;102001.31;5053769;28;20033;-85
2023/08/21 05:57:31;;;;;;;15.43;5.97;;;;;;;18.32;100.00;101986.75;5082351;28;20401;-84
2023/08/21 05:59:57;;;;;;;23.95;7.22;;;;;;;18.49;100.00;101990.69;5082327;28;20028;-85
2023/08/21 06:02:22;;;;;;;21.40;6.93;;;;;;;18.55;100.00;101993.75;5081178;28;20063;-85
2023/08/21 06:04:47;;;;;;;21.05;7.05;;;;;;;18.62;100.00;101994.03;5064034;28;20025;-85
2023/08/21 06:07:13;;;;;;;16.33;6.13;;;;;;;18.74;100.00;101992.88;5070942;28;20032;-85
2023/08/21 06:09:38;;;;;;;20.88;7.57;;;;;;;19.03;100.00;101991.09;5065462;28;20032;-84
2023/08/21 06:12:04;;;;;;;15.88;6.68;;;;;;;19.30;100.00;101993.09;5069666;28;20036;-84
2023/08/21 06:14:29;;;;;;;21.83;6.70;;;;;;;19.39;100.00;101994.09;5070208;28;20036;-84
2023/08/21 06:17:02;;;;;;;22.48;6.85;;;;;;;19.62;100.00;101998.22;5080113;28;20497;-84
2023/08/21 06:19:28;;;;;;;26.83;7.63;;;;;;;19.68;100.00;101993.97;5083174;28;20474;-85
2023/08/21 06:21:57;;;;;;;16.52;7.32;;;;;;;19.91;100.00;101991.69;5069620;28;20032;-84
2023/08/21 06:24:23;;;;;;;22.35;7.22;;;;;;;19.77;100.00;101997.75;5069984;28;20028;-84
2023/08/21 06:26:49;;;;;;;13.20;6.55;;;;;;;19.79;100.00;102004.03;5086491;28;20051;-84
2023/08/21 06:29:14;;;;;;;19.15;7.57;;;;;;;19.64;100.00;102004.53;5085308;28;20105;-84
2023/08/21 06:31:39;;;;;;;16.23;6.93;;;;;;;19.61;100.00;102013.16;5087662;28;20051;-84
2023/08/21 06:34:05;;;;;;;22.75;7.82;;;;;;;19.55;100.00;102010.97;5089108;28;20024;-85
2023/08/21 06:36:31;;;;;;;28.70;8.13;;;;;;;19.61;100.00;102010.38;5082259;28;20083;-84
2023/08/21 06:38:56;;;;;;;21.92;7.97;;;;;;;19.62;100.00;102012.09;5071098;28;20482;-86
2023/08/21 06:41:21;;;;;;;20.30;7.63;;;;;;;19.75;100.00;102014.56;5069928;28;20128;-84
2023/08/21 06:43:49;;;;;;;22.60;8.80;;;;;;;19.86;100.00;102023.75;5052669;28;20028;-84
2023/08/21 06:46:14;;;;;;;23.02;7.70;;;;;;;19.99;100.00;102008.47;5069965;28;20032;-84
2023/08/21 06:48:43;;;;;;;21.50;8.40;;;;;;;20.00;100.00;102021.34;5086679;28;20039;-84
2023/08/21 06:51:10;;;;;;;18.88;8.30;;;;;;;19.92;100.00;102025.91;5087824;28;20039;-84
2023/08/21 06:53:35;;;;;;;26.98;8.40;;;;;;;20.13;100.00;102023.72;5088739;28;20025;-86
2023/08/21 06:56:01;;;;;;;19.35;8.82;;;;;;;20.22;100.00;102018.25;5100182;28;20493;-84
2023/08/21 06:58:26;;;;;;;19.77;8.50;;;;;;;20.36;100.00;102026.09;5085630;28;20110;-85
2023/08/21 07:00:55;;;;;;;20.98;8.65;;;;;;;20.41;100.00;102022.84;5069056;28;20242;-86
2023/08/21 07:03:21;;;;;;;19.90;8.07;;;;;;;20.50;100.00;102024.69;5082927;28;20036;-85
2023/08/21 07:05:55;;;;;;;18.52;8.48;;;;;;;20.61;100.00;102029.13;5068311;28;20040;-85
2023/08/21 07:08:20;;;;;;;20.98;8.88;;;;;;;20.70;100.00;102022.63;5070781;28;20425;-87
2023/08/21 07:10:45;;;;;;;21.58;8.60;;;;;;;20.64;100.00;102021.34;5077026;28;20115;-84
2023/08/21 07:13:11;;;;;;;18.73;8.30;;;;;;;20.65;100.00;102011.97;5080717;28;20055;-86
2023/08/21 07:15:36;;;;;;;20.67;8.10;;;;;;;20.78;100.00;102021.84;5082999;28;20160;-85
2023/08/21 07:18:02;;;;;;;20.00;7.43;;;;;;;20.96;100.00;102019.91;5068317;28;20070;-85
2023/08/21 07:20:28;;;;;;;17.05;7.40;;;;;;;20.92;100.00;102018.47;5066581;28;20209;-84
2023/08/21 07:22:53;;;;;;;15.85;6.28;;;;;;;21.31;100.00;102020.84;5078823;28;20068;-83
2023/08/21 07:25:19;;;;;;;23.67;6.50;;;;;;;21.76;100.00;102033.72;5084023;28;20063;-85
2023/08/21 07:27:44;;;;;;;16.40;6.97;;;;;;;21.63;100.00;102034.16;5086566;28;20039;-84
2023/08/21 07:30:11;;;;;;;23.63;6.20;;;;;;;21.59;100.00;102031.88;5086022;28;20552;-80
2023/08/21 07:32:37;;;;;;;15.05;6.07;;;;;;;21.50;100.00;102038.41;5088107;28;20040;-80
2023/08/21 07:35:02;;;;;;;19.33;5.90;;;;;;;22.29;100.00;102033.59;5065099;28;20406;-82
2023/08/21 07:37:28;;;;;;;18.65;6.47;;;;;;;23.06;100.00;102031.41;5084627;28;20479;-81
2023/08/21 07:39:56;;;;;;;18.63;5.85;;;;;;;23.15;100.00;102029.50;5083145;28;20105;-81
2023/08/21 07:42:22;;;;;;;18.33;5.53;;;;;;;23.64;100.00;102035.00;5085399;28;20085;-81
2023/08/21 07:44:47;;;;;;;17.30;6.00;;;;;;;23.73;100.00;102021.03;5056455;28;20028;-81
2023/08/21 07:47:13;;;;;;;21.92;6.35;;;;;;;23.61;100.00;102018.63;5072178;28;20504;-81
2023/08/21 07:49:38;;;;;;;15.35;5.47;;;;;;;24.08;100.00;102024.41;5078846;28;20036;-83
2023/08/21 07:52:04;;;;;;;14.43;4.50;;;;;;;24.10;100.00;102027.91;5084858;28;20525;-83
2023/08/21 07:54:29;;;;;;;15.35;4.28;;;;;;;24.03;100.00;102034.22;5086637;28;20123;-83
2023/08/21 07:56:55;;;;;;;16.63;4.25;;;;;;;24.42;100.00;102026.00;5086156;28;20031;-83
2023/08/21 07:59:20;;;;;;;17.50;3.17;;;;;;;25.18;100.00;102040.13;5068011;28;20635;-83
2023/08/21 08:01:46;;;;;;;14.85;3.10;;;;;;;25.21;99.99;102029.41;5073261;28;20043;-83
2023/08/21 08:04:12;;;;;;;9.85;2.40;;;;;;;26.34;92.22;102035.84;5083837;28;20065;-85
2023/08/21 08:06:37;;;;;;;11.63;2.33;;;;;;;25.16;95.12;102033.84;5085720;28;20474;-83
2023/08/21 08:09:05;;;;;;;11.57;1.30;;;;;;;25.69;92.24;102040.31;5077896;28;20062;-81
2023/08/21 08:11:31;;;;;;;11.35;1.70;;;;;;;25.51;94.46;102037.88;5090059;28;20028;-83
2023/08/21 08:13:56;;;;;;;9.90;1.55;;;;;;;26.30;90.85;102033.63;5067352;28;20033;-83
2023/08/21 08:16:22;;;;;;;11.18;1.48;;;;;;;26.40;90.60;102045.44;5067765;28;20031;-83
2023/08/21 08:18:48;;;;;;;14.88;1.70;;;;;;;26.62;90.42;102043.50;5090001;28;20605;-83
2023/08/21 08:21:13;;;;;;;6.45;1.33;;;;;;;26.46;86.56;102053.03;5072155;28;20036;-83
2023/08/21 08:23:39;;;;;;;14.68;1.80;;;;;;;26.11;88.30;102046.34;5088013;28;20047;-82
2023/08/21 08:26:04;;;;;;;10.65;1.40;;;;;;;26.42;89.90;102040.47;5072538;28;20080;-82
2023/08/21 08:28:30;;;;;;;10.65;1.20;;;;;;;26.20;85.08;102040.44;5071079;28;20089;-82
2023/08/21 08:30:55;;;;;;;12.30;1.63;;;;;;;26.78;83.32;102043.28;5085205;28;20414;-82
2023/08/21 08:33:21;;;;;;;12.40;1.30;;;;;;;26.55;84.22;102042.56;5087832;28;20055;-82
2023/08/21 08:35:46;;;;;;;6.97;1.10;;;;;;;26.50;84.13;102043.16;5073162;28;20024;-82
2023/08/21 08:38:12;;;;;;;6.78;1.10;;;;;;;26.59;80.18;102055.13;5085075;28;20035;-82
2023/08/21 08:40:43;;;;;;;8.48;1.27;;;;;;;26.71;81.52;102047.09;5086848;28;20507;-85
2023/08/21 08:43:08;;;;;;;4.40;0.90;;;;;;;27.38;77.08;102053.38;5082775;28;20055;-85
2023/08/21 08:45:35;;;;;;;9.90;1.13;;;;;;;27.24;74.29;102049.56;5087949;28;20490;-85
2023/08/21 08:48:01;;;;;;;10.02;0.80;;;;;;;26.87;77.69;102043.16;5084037;28;20027;-86
2023/08/21 08:50:31;;;;;;;6.20;1.10;;;;;;;27.01;78.39;102046.97;5088788;28;20024;-86
2023/08/21 08:52:58;;;;;;;8.48;1.10;;;;;;;27.28;76.91;102048.91;5089387;28;20024;-85
2023/08/21 08:55:25;;;;;;;5.47;1.10;;;;;;;27.36;75.07;102052.72;5089025;28;20494;-85
2023/08/21 08:57:51;;;;;;;7.85;1.23;;;;;;;27.73;73.67;102051.47;5069849;28;20406;-85
2023/08/21 09:00:17;;;;;;;6.60;1.00;;;;;;;27.67;73.33;102044.72;5082089;28;20031;-83
2023/08/21 09:02:42;;;;;;;5.65;1.05;;;;;;;27.60;75.39;102046.63;5083454;28;20032;-84
2023/08/21 09:05:09;;;;;;;8.13;1.00;;;;;;;27.89;75.82;102047.44;5090582;28;20020;-84
2023/08/21 09:07:34;;;;;;;9.77;1.25;;;;;;;27.68;74.12;102054.91;5052566;28;20029;-85
2023/08/21 09:10:00;;;;;;;10.57;1.10;;;;;;;28.09;74.45;102047.59;5072984;28;20031;-84
2023/08/21 09:12:26;;;;;;;8.68;1.00;;;;;;;27.82;71.73;102047.38;5089110;28;20039;-85
2023/08/21 09:14:51;;;;;;;10.73;1.30;;;;;;;28.49;71.65;102047.75;5087939;28;20024;-84
2023/08/21 09:17:17;;;;;;;8.43;1.20;;;;;;;28.09;72.61;102049.53;5086789;28;20493;-84
2023/08/21 09:19:44;;;;;;;11.15;1.23;;;;;;;28.31;70.07;102053.09;5086775;28;20101;-84
2023/08/21 09:22:15;;;;;;;7.25;1.40;;;;;;;29.13;70.60;102045.50;5048443;28;20509;-84
2023/08/21 09:24:59;;;;;;;9.57;1.38;;;;;;;28.48;71.96;102053.59;5081680;28;20039;-84
2023/08/21 09:27:25;;;;;;;8.43;1.63;;;;;;;28.34;69.87;102044.22;5078653;28;20444;-84
2023/08/21 09:29:50;;;;;;;8.02;1.17;;;;;;;28.20;70.05;102049.81;5085928;28;20025;-84
2023/08/21 09:32:15;;;;;;;10.45;1.10;;;;;;;28.32;69.21;102047.25;5077089;28;20048;-84
2023/08/21 09:34:41;;;;;;;7.32;1.20;;;;;;;27.65;73.39;102046.00;5070084;28;20035;-84
2023/08/21 09:37:08;;;;;;;10.52;1.38;;;;;;;28.18;69.44;102037.00;5065410;28;20139;-85
2023/08/21 09:39:35;;;;;;;12.60;1.85;;;;;;;28.48;73.28;102031.91;5072482;28;20544;-85
2023/08/21 09:42:05;;;;;;;6.32;1.00;;;;;;;27.97;74.39;102036.03;5085111;28;20028;-85
2023/08/21 09:44:35;;;;;;;8.70;1.17;;;;;;;28.35;70.73;102035.56;5086071;28;20107;-85
2023/08/21 09:47:03;;;;;;;10.65;1.25;;;;;;;28.71;71.13;102034.41;5086517;28;20030;-85
2023/08/21 09:49:29;;;;;;;6.25;1.52;;;;;;;28.88;66.70;102034.84;5091362;28;20039;-84
2023/08/21 09:51:55;;;;;;;8.15;1.45;;;;;;;28.53;68.39;102026.53;5089581;28;20398;-84
2023/08/21 09:54:21;;;;;;;9.30;1.48;;;;;;;29.68;65.61;102037.69;5088978;28;20047;-85
2023/08/21 09:56:48;;;;;;;16.75;1.67;;;;;;;29.12;67.77;102026.84;5068798;28;20028;-84
2023/08/21 09:59:14;;;;;;;18.35;1.70;;;;;;;28.07;70.68;102020.72;5080261;28;20054;-84
2023/08/21 10:01:41;;;;;;;8.63;1.42;;;;;;;28.33;68.88;102031.22;5084774;28;20062;-84
2023/08/21 10:04:09;;;;;;;8.13;1.80;;;;;;;28.05;70.63;102029.38;5082283;28;20024;-85
2023/08/21 10:06:36;;;;;;;6.20;1.10;;;;;;;28.38;70.39;102032.34;5084659;28;20035;-85
2023/08/21 10:09:02;;;;;;;14.73;1.50;;;;;;;28.44;69.85;102027.78;5082859;28;20028;-85
2023/08/21 10:11:28;;;;;;;12.32;1.70;;;;;;;28.19;70.98;102019.03;5074546;28;20035;-84
2023/08/21 10:13:55;;;;;;;4.60;1.10;;;;;;;28.08;71.35;102012.03;5089901;28;20020;-84
2023/08/21 10:16:21;;;;;;;7.82;1.30;;;;;;;28.21;71.35;102019.69;5085076;28;20397;-85
2023/08/21 10:18:48;;;;;;;12.02;1.60;;;;;;;28.54;67.69;102013.28;5069044;28;20032;-85
2023/08/21 10:21:21;;;;;;;7.40;1.42;;;;;;;27.77;70.59;102019.00;5085851;28;20103;-86
2023/08/21 10:23:49;;;;;;;8.13;1.75;;;;;;;27.65;71.56;102015.91;5085704;28;20024;-85
2023/08/21 10:26:15;;;;;;;8.38;1.20;;;;;;;27.87;72.71;102011.03;5082502;28;20074;-85
2023/08/21 10:29:06;;;;;;;6.95;1.23;;;;;;;28.46;71.33;102016.31;5082267;28;20028;-84
2023/08/21 10:31:40;;;;;;;7.82;1.20;;;;;;;28.45;69.75;102011.75;5081856;28;20147;-85
2023/08/21 10:34:07;;;;;;;6.63;1.00;;;;;;;28.10;65.76;102009.88;5079498;28;20048;-84
2023/08/21 10:37:04;;;;;;;4.90;1.00;;;;;;;28.90;63.59;102007.28;5085047;28;20081;-85
2023/08/21 10:39:31;;;;;;;9.13;1.25;;;;;;;28.80;64.65;102011.66;5076540;28;20102;-85
2023/08/21 10:42:00;;;;;;;8.15;1.30;;;;;;;29.21;65.03;102024.72;5083360;28;20021;-84
2023/08/21 10:45:09;;;;;;;10.30;1.40;;;;;;;28.90;62.76;102015.75;5079589;28;20039;-85
2023/08/21 10:47:35;;;;;;;5.63;1.20;;;;;;;28.06;67.55;102014.22;5079932;28;20029;-84
2023/08/21 10:50:04;;;;;;;9.43;1.55;;;;;;;27.67;68.06;102022.19;5082397;28;20028;-85
2023/08/21 10:52:41;;;;;;;7.85;1.45;;;;;;;27.95;67.46;102015.66;5085450;28;20020;-85
2023/08/21 10:55:09;;;;;;;5.78;1.52;;;;;;;28.27;68.33;102020.78;5082780;28;20031;-85
2023/08/21 10:57:35;;;;;;;6.18;1.38;;;;;;;28.54;64.59;102014.16;5079028;28;20043;-85
2023/08/21 11:00:03;;;;;;;9.45;1.35;;;;;;;28.34;65.51;102019.72;5086347;28;20027;-85
2023/08/21 11:02:31;;;;;;;7.00;1.65;;;;;;;29.04;65.13;102015.75;5083169;28;20038;-84
2023/08/21 11:04:59;;;;;;;6.45;1.27;;;;;;;28.57;65.04;102018.53;5082679;28;20032;-85
2023/08/21 11:07:25;;;;;;;6.93;1.30;;;;;;;28.44;64.41;102019.34;5084378;28;20027;-85
2023/08/21 11:09:51;;;;;;;9.75;1.50;;;;;;;28.32;64.50;102027.53;5071250;28;20084;-85
2023/08/21 11:12:21;;;;;;;10.70;1.70;;;;;;;28.47;64.99;102026.50;5079791;28;20486;-84